Time;durP1;ratioP1;P1;durP2;ratioP2;P2;SDS_P1;SDS_P2;PMS_P1;PMS_P2;Temp;Humidity;BMP_temperature;BMP_pressure;BME280_temperature;BME280_humidity;BME280_pressure;Samples;Min_cycle;Max_cycle;Signal;HPM_P1;HPM_P2
2022/10/07 00:00:56;;;;;;;17.08;10.15;;;;;;;7.17;100.00;101096.53;5073485;28;20039;-78
2022/10/07 00:03:24;;;;;;;16.85;10.23;;;;;;;7.16;100.00;101095.69;5073715;28;20032;-77
2022/10/07 00:06:14;;;;;;;18.73;11.63;;;;;;;7.17;100.00;101097.38;5072756;28;20057;-78
2022/10/07 00:08:42;;;;;;;17.13;11.73;;;;;;;7.18;100.00;101100.84;5072928;28;20100;-78
2022/10/07 00:11:12;;;;;;;19.77;12.75;;;;;;;7.10;100.00;101093.13;5073275;28;20020;-78
2022/10/07 00:13:40;;;;;;;21.00;12.25;;;;;;;7.07;100.00;101094.88;5073069;28;20448;-78
2022/10/07 00:16:19;;;;;;;16.48;11.85;;;;;;;7.10;100.00;101105.22;5073108;28;20020;-78
2022/10/07 00:18:44;;;;;;;19.08;13.85;;;;;;;6.99;100.00;101095.84;5072792;28;20413;-77
2022/10/07 00:21:14;;;;;;;23.33;14.98;;;;;;;7.02;100.00;101100.09;5072945;28;20021;-78
2022/10/07 00:23:41;;;;;;;22.23;14.43;;;;;;;6.97;100.00;101097.56;5072669;28;20024;-77
2022/10/07 00:26:08;;;;;;;16.60;11.77;;;;;;;6.97;100.00;101097.56;5073043;28;20021;-77
2022/10/07 00:28:35;;;;;;;17.58;12.23;;;;;;;6.88;100.00;101081.25;5072656;28;20081;-78
2022/10/07 00:31:03;;;;;;;18.48;12.10;;;;;;;6.87;100.00;101082.97;5072684;28;20063;-77
2022/10/07 00:33:35;;;;;;;18.20;12.40;;;;;;;6.92;100.00;101088.13;5072776;28;20016;-77
2022/10/07 00:36:04;;;;;;;19.58;12.40;;;;;;;6.90;100.00;101087.25;5072673;28;20031;-77
2022/10/07 00:38:30;;;;;;;17.77;11.32;;;;;;;6.81;100.00;101074.41;5072799;28;20020;-78
2022/10/07 00:40:55;;;;;;;18.38;11.77;;;;;;;6.77;100.00;101076.16;5072444;28;20020;-78
2022/10/07 00:43:28;;;;;;;25.35;14.70;;;;;;;6.84;100.00;101088.19;5072634;28;20024;-78
2022/10/07 00:45:58;;;;;;;18.17;13.00;;;;;;;6.82;100.00;101091.63;5072232;28;20028;-78
2022/10/07 00:48:28;;;;;;;21.77;15.10;;;;;;;6.79;100.00;101089.97;5071119;28;20112;-78
2022/10/07 00:50:56;;;;;;;22.48;14.07;;;;;;;6.72;100.00;101065.81;5072286;28;20478;-77
2022/10/07 00:53:24;;;;;;;17.95;11.68;;;;;;;6.76;100.00;101077.03;5072389;28;20077;-78
2022/10/07 00:55:49;;;;;;;17.80;13.02;;;;;;;6.65;100.00;101066.75;5072204;28;20027;-78
2022/10/07 00:58:15;;;;;;;16.92;12.40;;;;;;;6.66;100.00;101076.25;5072459;28;20024;-77
2022/10/07 01:00:42;;;;;;;14.20;10.60;;;;;;;6.66;100.00;101077.97;5072031;28;20027;-77
2022/10/07 01:03:07;;;;;;;18.13;12.60;;;;;;;6.60;100.00;101063.34;5072412;28;20021;-77
2022/10/07 01:05:33;;;;;;;17.02;11.55;;;;;;;6.59;100.00;101059.03;5072073;28;20052;-77
2022/10/07 01:07:58;;;;;;;17.27;11.77;;;;;;;6.53;100.00;101061.69;5072183;28;20021;-77
2022/10/07 01:10:30;;;;;;;14.70;11.05;;;;;;;6.55;100.00;101065.09;5072080;28;20344;-77
2022/10/07 01:13:04;;;;;;;18.45;13.10;;;;;;;6.53;100.00;101074.63;5071816;28;20016;-77
2022/10/07 01:16:09;;;;;;;17.15;12.52;;;;;;;6.55;100.00;101059.06;5072469;28;20028;-77
2022/10/07 01:18:52;;;;;;;20.67;12.98;;;;;;;6.52;100.00;101061.69;5009692;28;20026;-77
2022/10/07 01:21:36;;;;;;;16.30;12.77;;;;;;;6.47;100.00;101065.16;5010094;28;20063;-77
2022/10/07 01:24:38;;;;;;;21.20;13.15;;;;;;;6.44;100.00;101060.00;5009964;28;20477;-77
2022/10/07 01:27:08;;;;;;;19.50;13.07;;;;;;;6.38;100.00;101057.47;5009833;28;20037;-77
2022/10/07 01:30:04;;;;;;;15.10;12.00;;;;;;;6.37;100.00;101057.47;5009836;28;20112;-78
2022/10/07 01:32:35;;;;;;;15.60;12.50;;;;;;;6.35;100.00;101057.47;4951403;28;20566;-77
2022/10/07 01:35:04;;;;;;;29.27;14.10;;;;;;;6.23;100.00;101053.22;4951383;29;20411;-77
2022/10/07 01:37:35;;;;;;;16.10;12.05;;;;;;;6.20;100.00;101044.66;4951412;29;20054;-77
2022/10/07 01:40:32;;;;;;;18.27;12.55;;;;;;;6.23;100.00;101052.38;4951491;29;20034;-77
2022/10/07 01:42:58;;;;;;;19.35;13.05;;;;;;;6.15;100.00;101039.50;4951960;28;20044;-78
2022/10/07 01:45:27;;;;;;;22.38;14.00;;;;;;;6.18;100.00;101057.59;4955426;29;20031;-77
2022/10/07 01:47:53;;;;;;;19.23;13.18;;;;;;;6.16;100.00;101051.56;4955201;29;20031;-78
2022/10/07 01:50:23;;;;;;;21.10;13.35;;;;;;;6.11;100.00;101043.00;4955631;29;20101;-78
2022/10/07 01:53:11;;;;;;;20.45;12.77;;;;;;;6.09;100.00;101033.50;4954955;29;20075;-78
2022/10/07 01:55:50;;;;;;;22.48;13.77;;;;;;;6.06;100.00;101039.53;4991046;28;20544;-78
2022/10/07 01:58:37;;;;;;;20.77;13.18;;;;;;;6.03;100.00;101037.00;5013622;28;20030;-78
2022/10/07 02:01:14;;;;;;;20.17;13.48;;;;;;;6.00;100.00;101035.28;5013822;28;20064;-78
2022/10/07 02:03:57;;;;;;;24.40;12.90;;;;;;;6.01;100.00;101033.53;5013259;28;20399;-78
2022/10/07 02:06:52;;;;;;;21.27;13.40;;;;;;;6.02;100.00;101035.25;5013245;28;20077;-77
2022/10/07 02:09:42;;;;;;;18.17;12.88;;;;;;;5.98;100.00;101025.78;5013668;28;20033;-77
2022/10/07 02:12:16;;;;;;;25.42;14.30;;;;;;;6.00;100.00;101027.50;5033338;28;20035;-78
2022/10/07 02:14:47;;;;;;;23.52;12.52;;;;;;;5.93;100.00;101023.25;5032860;28;20486;-77
2022/10/07 02:17:19;;;;;;;18.10;12.48;;;;;;;5.95;100.00;101034.44;5033116;28;20077;-78
2022/10/07 02:19:55;;;;;;;15.50;12.13;;;;;;;5.85;100.00;101016.38;5032611;28;20053;-78
2022/10/07 02:22:24;;;;;;;19.08;13.25;;;;;;;5.90;100.00;101028.41;5032934;28;20168;-77
2022/10/07 02:24:54;;;;;;;19.60;12.73;;;;;;;5.92;100.00;101021.53;5032676;28;20171;-77
2022/10/07 02:27:27;;;;;;;15.30;12.40;;;;;;;5.86;100.00;101028.44;5032837;28;20034;-78
2022/10/07 02:29:58;;;;;;;16.27;12.27;;;;;;;5.81;100.00;101006.91;5032547;28;20033;-78
2022/10/07 02:32:26;;;;;;;20.77;13.57;;;;;;;5.80;100.00;101007.78;5032663;28;20032;-78
2022/10/07 02:34:56;;;;;;;19.25;13.23;;;;;;;5.78;100.00;101004.34;5032364;28;20030;-78
2022/10/07 02:37:26;;;;;;;16.85;13.48;;;;;;;5.83;100.00;101005.19;5032656;28;20029;-78
2022/10/07 02:39:53;;;;;;;19.17;13.38;;;;;;;5.80;100.00;101003.47;5032370;28;20034;-77
2022/10/07 02:42:38;;;;;;;21.30;15.30;;;;;;;5.86;100.00;101006.03;5032655;28;20059;-78
2022/10/07 02:45:18;;;;;;;22.67;14.23;;;;;;;5.83;100.00;101003.44;5033737;28;20033;-78
2022/10/07 02:47:58;;;;;;;17.90;14.15;;;;;;;5.76;100.00;100999.16;5074791;28;20028;-77
2022/10/07 02:50:30;;;;;;;21.98;14.70;;;;;;;5.83;100.00;101010.34;5074784;28;20032;-78
2022/10/07 02:52:58;;;;;;;19.70;13.85;;;;;;;5.67;100.00;100989.75;5074291;28;20012;-78
2022/10/07 02:55:27;;;;;;;24.48;15.77;;;;;;;5.73;100.00;100994.00;5073318;28;20111;-78
2022/10/07 02:57:57;;;;;;;24.42;16.77;;;;;;;5.71;100.00;100993.19;5074770;28;20020;-78
2022/10/07 03:00:23;;;;;;;23.48;16.38;;;;;;;5.69;100.00;100994.94;5074691;28;20020;-78
2022/10/07 03:02:55;;;;;;;21.65;15.18;;;;;;;5.67;100.00;100981.13;5074324;28;20016;-78
2022/10/07 03:05:23;;;;;;;22.20;15.30;;;;;;;5.75;100.00;101002.63;5074370;28;20021;-78
2022/10/07 03:07:52;;;;;;;20.05;13.93;;;;;;;5.68;100.00;100980.25;5074167;28;20013;-78
2022/10/07 03:10:18;;;;;;;22.63;15.67;;;;;;;5.66;100.00;100980.28;5074508;28;20025;-78
2022/10/07 03:12:44;;;;;;;25.85;16.55;;;;;;;5.74;100.00;100995.75;5074174;28;20075;-78
2022/10/07 03:15:10;;;;;;;20.42;15.68;;;;;;;5.70;100.00;100989.72;5074359;28;20024;-78
2022/10/07 03:17:36;;;;;;;22.55;15.38;;;;;;;5.57;100.00;100964.81;5074392;28;20048;-77
2022/10/07 03:20:01;;;;;;;24.42;14.80;;;;;;;5.60;100.00;100976.84;5074332;28;20059;-78
2022/10/07 03:22:28;;;;;;;22.25;15.85;;;;;;;5.59;100.00;100985.47;5074073;28;20123;-78
2022/10/07 03:24:53;;;;;;;19.90;15.43;;;;;;;5.55;100.00;100973.44;5074176;28;20093;-77
2022/10/07 03:27:19;;;;;;;22.98;15.65;;;;;;;5.59;100.00;100977.72;5074180;28;20460;-78
2022/10/07 03:29:44;;;;;;;18.55;14.40;;;;;;;5.55;100.00;100982.03;5074285;28;20074;-77
2022/10/07 03:32:10;;;;;;;19.42;15.13;;;;;;;5.49;100.00;100971.75;5074034;28;20444;-78
2022/10/07 03:34:36;;;;;;;24.67;14.18;;;;;;;5.56;100.00;100976.00;5073849;28;20337;-78
2022/10/07 03:37:02;;;;;;;17.42;14.23;;;;;;;5.51;100.00;100973.44;5073570;28;20060;-77
2022/10/07 03:39:27;;;;;;;20.38;14.25;;;;;;;5.54;100.00;100979.47;5073966;28;20020;-78
2022/10/07 03:41:53;;;;;;;19.27;14.13;;;;;;;5.51;100.00;100975.16;5073507;28;20032;-77
2022/10/07 03:44:18;;;;;;;24.75;14.57;;;;;;;5.47;100.00;100970.88;5073864;28;20028;-77
2022/10/07 03:46:47;;;;;;;17.83;13.88;;;;;;;5.43;100.00;100961.44;5073521;28;20511;-77
2022/10/07 03:49:13;;;;;;;21.73;14.35;;;;;;;5.42;100.00;100963.16;5073699;28;20017;-77
2022/10/07 03:51:38;;;;;;;21.83;14.40;;;;;;;5.38;100.00;100966.63;5073590;28;20108;-77
2022/10/07 03:54:04;;;;;;;19.88;14.27;;;;;;;5.40;100.00;100961.47;5073338;28;20032;-77
2022/10/07 03:56:29;;;;;;;24.85;14.35;;;;;;;5.36;100.00;100941.69;5073563;28;20349;-77
2022/10/07 03:58:54;;;;;;;18.42;14.00;;;;;;;5.35;100.00;100940.81;5073303;28;20017;-77
2022/10/07 04:01:20;;;;;;;21.33;14.77;;;;;;;5.37;100.00;100952.00;5073414;28;20020;-77
2022/10/07 04:03:45;;;;;;;22.90;14.30;;;;;;;5.31;100.00;100941.69;5073234;28;20023;-77
2022/10/07 04:06:10;;;;;;;17.50;13.85;;;;;;;5.35;100.00;100951.16;5072892;28;20043;-78
2022/10/07 04:08:36;;;;;;;19.92;15.10;;;;;;;5.26;100.00;100933.94;5073701;28;20021;-77
2022/10/07 04:11:03;;;;;;;23.60;18.35;;;;;;;5.31;100.00;100954.63;5073041;28;20024;-77
2022/10/07 04:13:29;;;;;;;23.88;18.88;;;;;;;5.28;100.00;100946.88;5073211;28;20051;-78
2022/10/07 04:15:54;;;;;;;31.92;21.63;;;;;;;5.17;100.00;100939.16;5072958;28;20060;-77
2022/10/07 04:18:20;;;;;;;36.78;24.05;;;;;;;5.16;100.00;100939.16;5073060;28;20021;-78
2022/10/07 04:20:46;;;;;;;25.42;20.08;;;;;;;5.20;100.00;100949.47;5073156;28;20028;-78
2022/10/07 04:23:11;;;;;;;28.95;19.35;;;;;;;5.15;100.00;100930.56;5073374;28;20448;-77
2022/10/07 04:25:42;;;;;;;26.83;16.65;;;;;;;5.10;100.00;100929.72;5073036;28;20088;-77
2022/10/07 04:28:14;;;;;;;19.80;16.65;;;;;;;5.15;100.00;100937.47;5072675;28;20021;-77
2022/10/07 04:30:42;;;;;;;26.52;16.20;;;;;;;5.09;100.00;100925.41;5072846;28;20021;-78
2022/10/07 04:33:08;;;;;;;22.92;16.45;;;;;;;5.07;100.00;100928.88;5072321;28;20103;-78
2022/10/07 04:35:38;;;;;;;25.90;17.05;;;;;;;5.04;100.00;100923.72;5072667;28;20433;-78
2022/10/07 04:38:07;;;;;;;26.63;17.58;;;;;;;5.04;100.00;100926.28;5072659;28;20025;-78
2022/10/07 04:40:38;;;;;;;25.67;18.40;;;;;;;4.96;100.00;100921.16;5072784;28;20094;-78
2022/10/07 04:43:18;;;;;;;24.25;17.88;;;;;;;5.00;100.00;100928.03;5072486;28;20028;-78
2022/10/07 04:45:47;;;;;;;32.42;18.67;;;;;;;4.99;100.00;100927.16;5072556;28;20358;-78
2022/10/07 04:48:16;;;;;;;34.35;20.20;;;;;;;4.97;100.00;100923.75;5072662;28;20028;-78
2022/10/07 04:50:42;;;;;;;29.90;19.92;;;;;;;5.06;100.00;100945.25;5072629;28;20056;-78
2022/10/07 04:53:09;;;;;;;31.33;20.60;;;;;;;4.99;100.00;100931.47;5072188;28;20475;-78
2022/10/07 04:55:39;;;;;;;27.38;19.60;;;;;;;5.05;100.00;100938.34;5072439;28;20016;-78
2022/10/07 04:58:06;;;;;;;26.85;19.73;;;;;;;5.07;100.00;100937.47;5071117;28;20051;-78
2022/10/07 05:00:31;;;;;;;27.30;19.85;;;;;;;5.00;100.00;100915.97;5072673;28;20023;-78
2022/10/07 05:02:57;;;;;;;26.23;18.67;;;;;;;5.10;100.00;100927.16;5072254;28;20099;-78
2022/10/07 05:05:25;;;;;;;33.08;21.15;;;;;;;5.12;100.00;100920.22;5072114;28;20137;-78
2022/10/07 05:07:51;;;;;;;25.88;19.30;;;;;;;5.10;100.00;100913.34;5072120;28;20410;-78
2022/10/07 05:10:17;;;;;;;28.55;21.50;;;;;;;5.04;100.00;100905.63;5072039;28;20052;-78
2022/10/07 05:12:43;;;;;;;33.78;24.00;;;;;;;5.14;100.00;100922.78;5072549;28;20025;-78
2022/10/07 05:15:09;;;;;;;34.97;24.45;;;;;;;5.13;100.00;100916.78;5071950;28;20034;-78
2022/10/07 05:17:34;;;;;;;30.27;21.85;;;;;;;5.16;100.00;100901.28;5071490;28;20017;-78
2022/10/07 05:20:00;;;;;;;30.23;22.10;;;;;;;5.18;100.00;100909.91;5071902;28;20363;-78
2022/10/07 05:22:25;;;;;;;32.33;22.38;;;;;;;5.19;100.00;100908.16;5071988;28;20028;-78
2022/10/07 05:24:51;;;;;;;29.50;20.80;;;;;;;5.20;100.00;100900.41;5071827;28;20368;-78
2022/10/07 05:27:16;;;;;;;31.38;21.55;;;;;;;5.28;100.00;100907.25;5071856;28;20031;-78
2022/10/07 05:29:41;;;;;;;31.73;22.80;;;;;;;5.38;100.00;100914.09;5072105;28;20069;-79
2022/10/07 05:32:07;;;;;;;33.55;23.50;;;;;;;5.35;100.00;100894.31;5070531;28;20044;-79
2022/10/07 05:34:32;;;;;;;32.45;23.45;;;;;;;5.41;100.00;100901.16;5071972;28;20467;-79
2022/10/07 05:36:58;;;;;;;37.42;25.38;;;;;;;5.56;100.00;100908.81;5071733;28;20053;-79
2022/10/07 05:39:24;;;;;;;37.72;26.13;;;;;;;5.59;100.00;100885.53;5071929;28;20028;-79
2022/10/07 05:41:49;;;;;;;36.60;25.10;;;;;;;5.90;100.00;100900.81;5071764;28;20020;-79
2022/10/07 05:44:15;;;;;;;35.20;24.77;;;;;;;6.05;100.00;100907.66;5071777;28;20304;-79
2022/10/07 05:46:41;;;;;;;36.63;23.38;;;;;;;6.29;100.00;100907.47;5071936;28;20024;-79
2022/10/07 05:49:06;;;;;;;35.28;24.05;;;;;;;6.45;100.00;100901.28;5071656;28;20029;-79
2022/10/07 05:51:31;;;;;;;37.42;24.27;;;;;;;6.63;100.00;100897.63;5071864;28;20017;-79
2022/10/07 05:53:57;;;;;;;46.33;28.35;;;;;;;6.87;100.00;100906.00;5071576;28;20036;-79
2022/10/07 05:56:23;;;;;;;44.85;28.52;;;;;;;7.00;100.00;100887.72;5071732;28;20036;-79
2022/10/07 05:58:49;;;;;;;39.38;25.85;;;;;;;7.32;100.00;100896.81;5072078;28;20108;-79
2022/10/07 06:01:17;;;;;;;39.10;26.40;;;;;;;7.52;100.00;100891.34;5071743;28;20095;-79
2022/10/07 06:03:53;;;;;;;42.00;25.60;;;;;;;7.83;100.00;100901.25;5071792;28;20028;-79
2022/10/07 06:06:18;;;;;;;36.72;24.45;;;;;;;8.06;100.00;100901.78;5071563;28;20044;-79
2022/10/07 06:08:45;;;;;;;34.53;23.10;;;;;;;8.31;100.00;100886.66;5071494;28;20024;-79
2022/10/07 06:13:58;;;;;;;30.17;19.85;;;;;;;9.12;100.00;100902.47;5071357;28;20052;-79
2022/10/07 06:16:24;;;;;;;27.50;20.52;;;;;;;9.31;100.00;100882.13;5071549;28;20032;-79
2022/10/07 06:18:51;;;;;;;26.33;18.23;;;;;;;9.52;100.00;100885.97;5071576;28;20023;-79
2022/10/07 06:21:17;;;;;;;27.77;19.30;;;;;;;9.63;100.00;100894.41;5071304;28;20024;-79
2022/10/07 06:23:42;;;;;;;29.40;19.13;;;;;;;9.91;100.00;100887.69;5071287;28;20024;-79
2022/10/07 06:26:10;;;;;;;24.55;16.13;;;;;;;10.14;100.00;100891.44;5071298;28;20081;-79
2022/10/07 06:28:37;;;;;;;21.25;15.55;;;;;;;10.30;100.00;100892.81;5071484;28;20063;-79
2022/10/07 06:31:11;;;;;;;19.35;14.98;;;;;;;10.65;100.00;100881.44;5074995;28;20029;-79
2022/10/07 06:33:37;;;;;;;19.02;14.68;;;;;;;10.82;100.00;100874.94;5075419;28;20020;-79
2022/10/07 06:36:10;;;;;;;21.63;15.45;;;;;;;11.05;100.00;100872.53;5074745;28;20508;-79
2022/10/07 06:38:36;;;;;;;19.65;14.48;;;;;;;11.59;100.00;100871.78;5075422;28;20063;-79
2022/10/07 06:41:04;;;;;;;19.42;12.68;;;;;;;12.83;96.88;100879.81;5074839;28;20052;-79
2022/10/07 06:43:32;;;;;;;21.55;13.40;;;;;;;13.42;92.30;100874.97;5074870;28;20363;-79
2022/10/07 06:46:01;;;;;;;14.77;11.45;;;;;;;13.68;91.73;100880.97;5074639;28;20016;-79
2022/10/07 06:48:27;;;;;;;15.10;10.98;;;;;;;14.15;87.64;100870.31;5074757;28;20016;-79
2022/10/07 06:50:57;;;;;;;15.63;11.63;;;;;;;14.24;85.94;100880.38;5074673;28;20042;-79
2022/10/07 06:53:23;;;;;;;15.68;11.30;;;;;;;13.94;86.00;100874.66;5074788;28;20457;-79
2022/10/07 06:55:50;;;;;;;15.07;11.20;;;;;;;14.37;86.93;100876.34;5074607;28;20456;-79
2022/10/07 06:58:16;;;;;;;16.17;11.20;;;;;;;14.80;86.46;100864.03;5074443;28;20107;-79
2022/10/07 07:00:46;;;;;;;15.35;11.02;;;;;;;14.72;84.30;100855.63;5074638;28;20032;-79
2022/10/07 07:03:11;;;;;;;17.63;10.68;;;;;;;15.04;84.78;100866.44;5074262;28;20016;-79
2022/10/07 07:05:38;;;;;;;13.93;11.02;;;;;;;15.23;83.59;100872.56;5074433;28;20047;-76
2022/10/07 07:08:03;;;;;;;15.20;10.80;;;;;;;15.13;83.01;100868.66;5074464;28;20028;-77
2022/10/07 07:10:29;;;;;;;14.18;10.02;;;;;;;15.35;83.91;100868.50;5074534;28;20577;-77
2022/10/07 07:12:56;;;;;;;13.90;9.27;;;;;;;15.73;83.69;100860.63;5074377;28;20020;-77
2022/10/07 07:15:21;;;;;;;13.27;9.27;;;;;;;15.64;82.30;100849.63;5074352;28;20105;-77
2022/10/07 07:17:47;;;;;;;14.80;9.30;;;;;;;15.36;81.41;100857.94;5074231;28;20068;-77
2022/10/07 07:20:13;;;;;;;14.35;9.70;;;;;;;15.51;82.92;100852.91;5074082;28;20032;-77
2022/10/07 07:22:39;;;;;;;12.00;8.88;;;;;;;15.41;82.05;100853.31;5076546;28;20039;-77
2022/10/07 07:25:05;;;;;;;16.02;10.25;;;;;;;15.23;83.13;100851.56;5073214;28;20030;-77
2022/10/07 07:27:31;;;;;;;17.05;9.95;;;;;;;15.28;83.25;100840.84;5079503;28;20459;-77
2022/10/07 07:29:57;;;;;;;16.80;9.40;;;;;;;15.59;83.57;100842.84;5075829;28;20025;-77
2022/10/07 07:32:23;;;;;;;13.20;8.88;;;;;;;15.71;83.44;100845.75;5085709;28;20103;-77
2022/10/07 07:34:48;;;;;;;11.85;8.05;;;;;;;15.86;82.25;100843.31;5094265;28;20108;-77
2022/10/07 07:37:15;;;;;;;10.32;7.30;;;;;;;15.96;82.14;100853.28;5094024;28;20467;-77
2022/10/07 07:39:41;;;;;;;11.07;6.50;;;;;;;16.17;81.54;100853.13;5094166;28;20403;-77
2022/10/07 07:42:07;;;;;;;11.02;7.00;;;;;;;16.23;80.72;100841.47;5093063;28;20027;-77
2022/10/07 07:44:33;;;;;;;10.65;6.72;;;;;;;16.36;79.74;100848.66;5094027;28;20024;-77
2022/10/07 07:46:58;;;;;;;13.20;6.97;;;;;;;16.30;77.73;100846.31;5093782;28;20036;-77
2022/10/07 07:49:24;;;;;;;9.55;6.70;;;;;;;16.30;78.59;100840.22;5094083;28;20030;-77
2022/10/07 07:51:49;;;;;;;10.00;6.60;;;;;;;16.20;78.77;100845.09;5094007;28;20374;-77
2022/10/07 07:54:15;;;;;;;16.58;7.50;;;;;;;16.10;78.85;100836.00;5093616;28;20020;-77
2022/10/07 07:56:41;;;;;;;15.30;6.95;;;;;;;15.95;79.33;100833.19;5093848;28;20045;-77
2022/10/07 07:59:07;;;;;;;9.10;6.20;;;;;;;15.83;78.74;100817.19;5093465;28;20035;-77
2022/10/07 08:01:34;;;;;;;13.20;7.40;;;;;;;15.61;78.80;100823.47;5093573;28;20023;-77
2022/10/07 08:04:00;;;;;;;12.73;6.93;;;;;;;15.62;80.22;100822.53;5093563;28;20181;-77
2022/10/07 08:06:27;;;;;;;10.90;6.90;;;;;;;15.52;79.63;100823.06;5093334;28;20065;-77
2022/10/07 08:08:56;;;;;;;9.02;6.22;;;;;;;15.60;80.96;100821.78;5093773;28;20016;-77
2022/10/07 08:11:22;;;;;;;9.88;7.30;;;;;;;15.78;81.06;100825.31;5093167;28;20031;-77
2022/10/07 08:13:47;;;;;;;13.63;8.07;;;;;;;15.77;80.78;100815.72;5093334;28;20110;-77
2022/10/07 08:16:15;;;;;;;13.35;7.47;;;;;;;15.82;79.86;100811.09;5093116;28;20504;-77
2022/10/07 08:18:44;;;;;;;9.65;7.65;;;;;;;15.52;80.17;100789.78;5093320;28;20042;-77
2022/10/07 08:21:10;;;;;;;8.48;7.57;;;;;;;15.59;80.51;100809.59;5093180;28;20049;-77
2022/10/07 08:23:36;;;;;;;11.77;7.38;;;;;;;15.58;81.51;100807.84;5093240;28;20420;-77
2022/10/07 08:26:03;;;;;;;11.02;7.38;;;;;;;15.62;81.42;100801.53;5093055;28;20050;-77
2022/10/07 08:28:29;;;;;;;14.52;10.40;;;;;;;15.44;80.90;100795.41;5093713;28;20024;-77
2022/10/07 08:31:08;;;;;;;11.75;9.52;;;;;;;15.11;82.68;100795.25;5093409;28;20443;-77
2022/10/07 08:33:38;;;;;;;13.45;10.65;;;;;;;15.04;83.53;100783.31;5093082;28;20531;-77
2022/10/07 08:36:04;;;;;;;;;;;;;;;15.02;84.61;100797.47;5093342;28;20046;-77
2022/10/07 08:38:32;;;;;;;10.75;9.65;;;;;;;14.82;85.26;100772.13;5093318;28;19904;-77
2022/10/07 08:41:08;;;;;;;15.55;9.45;;;;;;;14.92;86.20;100790.03;5092862;28;20016;-77
2022/10/07 08:43:46;;;;;;;12.80;9.27;;;;;;;14.71;86.31;100767.41;5093097;28;20070;-77
2022/10/07 08:46:16;;;;;;;12.38;9.63;;;;;;;14.83;86.67;100779.97;5092966;28;20031;-77
2022/10/07 08:48:45;;;;;;;12.95;10.25;;;;;;;14.72;86.49;100790.94;5092869;28;20016;-77
2022/10/07 08:51:38;;;;;;;16.83;11.35;;;;;;;14.56;86.47;100781.19;5092522;28;20019;-77
2022/10/07 08:54:04;;;;;;;17.15;10.95;;;;;;;14.44;86.70;100777.31;5092522;28;20054;-77
2022/10/07 08:56:31;;;;;;;13.20;9.80;;;;;;;14.41;87.70;100777.44;5092793;28;20055;-77
2022/10/07 08:59:21;;;;;;;21.83;11.43;;;;;;;14.52;87.65;100777.88;5092667;28;20028;-77
2022/10/07 09:02:21;;;;;;;17.33;10.63;;;;;;;14.56;87.83;100763.69;5092478;28;20024;-77
2022/10/07 09:05:19;;;;;;;20.10;10.53;;;;;;;14.60;87.97;100780.16;5092647;28;20494;-77
2022/10/07 09:07:52;;;;;;;13.98;10.02;;;;;;;14.49;87.75;100759.66;5092502;28;20028;-77
2022/10/07 09:10:24;;;;;;;13.25;8.43;;;;;;;14.48;88.19;100760.53;5092034;28;20050;-77
2022/10/07 09:12:56;;;;;;;14.32;9.18;;;;;;;14.53;88.34;100771.69;5092540;28;20024;-77
2022/10/07 09:15:45;;;;;;;20.15;10.05;;;;;;;14.45;88.43;100768.53;5092188;28;20023;-77
2022/10/07 09:18:18;;;;;;;17.10;8.15;;;;;;;14.53;89.11;100762.97;5009828;28;20044;-77
2022/10/07 09:20:50;;;;;;;17.25;9.68;;;;;;;14.57;89.08;100749.66;5010127;28;20042;-77
2022/10/07 09:23:17;;;;;;;14.75;9.02;;;;;;;14.61;88.37;100742.50;5009692;28;20076;-77
2022/10/07 09:25:43;;;;;;;14.32;8.48;;;;;;;14.71;88.20;100735.94;5009962;28;20037;-77
2022/10/07 09:28:15;;;;;;;14.10;8.07;;;;;;;14.80;88.48;100734.66;5009684;28;20034;-77
2022/10/07 09:30:41;;;;;;;14.98;10.60;;;;;;;14.88;88.44;100743.03;5009945;28;20030;-77
2022/10/07 09:33:19;;;;;;;12.73;7.90;;;;;;;14.82;88.32;100732.81;5009588;28;20069;-77
2022/10/07 09:36:06;;;;;;;13.35;9.15;;;;;;;14.97;88.77;100735.56;5009833;28;20125;-77
2022/10/07 09:38:40;;;;;;;14.05;8.68;;;;;;;14.96;87.58;100722.53;5009828;28;20493;-77
2022/10/07 09:41:20;;;;;;;16.13;9.90;;;;;;;14.92;87.03;100727.06;5009573;28;20084;-77
2022/10/07 09:43:48;;;;;;;12.70;9.55;;;;;;;14.86;87.63;100723.88;5009913;28;20126;-76
2022/10/07 09:46:46;;;;;;;13.18;7.97;;;;;;;14.80;88.43;100713.69;5009613;28;20030;-77
2022/10/07 09:49:26;;;;;;;12.30;7.22;;;;;;;14.98;88.63;100725.91;5009497;28;20029;-77
2022/10/07 09:52:04;;;;;;;14.85;8.93;;;;;;;14.98;86.76;100715.41;5009636;28;20030;-77
2022/10/07 09:54:32;;;;;;;11.50;7.88;;;;;;;15.03;86.60;100712.56;5026849;28;20032;-77
2022/10/07 09:57:00;;;;;;;11.40;8.23;;;;;;;15.03;87.40;100699.44;5092011;28;20490;-77
2022/10/07 09:59:26;;;;;;;11.48;8.68;;;;;;;15.19;86.64;100717.00;5091743;28;20420;-77
2022/10/07 10:01:54;;;;;;;12.50;8.40;;;;;;;15.26;87.15;100699.19;5091924;28;20034;-77
2022/10/07 10:04:26;;;;;;;14.68;8.32;;;;;;;15.29;86.86;100696.41;5092950;28;20153;-77
2022/10/07 10:07:16;;;;;;;14.57;9.00;;;;;;;15.22;87.06;100689.78;5096149;28;20047;-77
2022/10/07 10:09:54;;;;;;;13.77;8.77;;;;;;;15.18;87.24;100694.31;5095882;28;20556;-77
2022/10/07 10:12:21;;;;;;;13.02;8.70;;;;;;;15.22;87.20;100692.41;5095677;28;20020;-77
2022/10/07 10:14:50;;;;;;;11.60;9.20;;;;;;;15.20;86.98;100681.09;5095486;28;20016;-77
2022/10/07 10:17:30;;;;;;;12.13;8.90;;;;;;;15.20;87.31;100686.34;5095560;28;20080;-77
2022/10/07 10:20:24;;;;;;;15.95;9.80;;;;;;;15.10;87.31;100672.00;5095739;28;20021;-77
2022/10/07 10:22:50;;;;;;;12.57;8.23;;;;;;;15.20;88.06;100671.47;5095609;28;20016;-77
2022/10/07 10:28:33;;;;;;;13.82;9.75;;;;;;;15.07;87.69;100657.25;5095466;28;20383;-77
2022/10/07 10:31:14;;;;;;;11.98;9.20;;;;;;;15.06;88.10;100652.94;5095474;28;20024;-77
2022/10/07 10:33:50;;;;;;;11.85;8.43;;;;;;;15.21;88.36;100657.44;5095241;28;20047;-77
2022/10/07 10:36:22;;;;;;;14.23;8.95;;;;;;;15.29;87.88;100656.19;5094982;28;20021;-77
2022/10/07 10:39:01;;;;;;;12.95;9.43;;;;;;;15.39;88.24;100660.91;5095194;28;20449;-77
2022/10/07 10:41:40;;;;;;;11.93;8.68;;;;;;;15.43;87.42;100648.47;5095009;28;20016;-77
2022/10/07 10:44:34;;;;;;;17.25;9.15;;;;;;;15.36;86.33;100633.97;5095119;28;20059;-77
2022/10/07 10:47:32;;;;;;;11.95;7.22;;;;;;;15.42;86.70;100637.13;5095508;28;20043;-77
2022/10/07 10:50:22;;;;;;;11.15;6.90;;;;;;;15.56;87.04;100636.41;5094606;28;20535;-76
2022/10/07 10:53:01;;;;;;;12.38;7.05;;;;;;;15.61;86.17;100623.91;5095166;28;20020;-77
2022/10/07 10:55:47;;;;;;;13.80;7.18;;;;;;;15.70;87.06;100614.72;5094876;28;20107;-77
2022/10/07 10:58:29;;;;;;;10.55;7.03;;;;;;;15.75;86.18;100615.31;5094775;28;20024;-77
2022/10/07 11:01:08;;;;;;;13.00;6.97;;;;;;;15.68;86.38;100612.19;5095218;28;20367;-77
2022/10/07 11:04:12;;;;;;;11.52;6.05;;;;;;;15.78;86.11;100607.28;5094823;28;20024;-77
2022/10/07 11:06:43;;;;;;;9.57;6.25;;;;;;;15.89;85.79;100604.09;5095013;28;20450;-77
2022/10/07 11:09:44;;;;;;;10.23;6.93;;;;;;;16.09;85.68;100593.34;5094640;28;20020;-77
2022/10/07 11:12:32;;;;;;;10.98;7.40;;;;;;;16.33;83.70;100591.16;5031940;28;20580;-77
2022/10/07 11:15:05;;;;;;;9.75;6.90;;;;;;;16.37;83.50;100583.94;5031338;28;20062;-77
2022/10/07 11:17:34;;;;;;;10.40;6.38;;;;;;;16.19;85.08;100580.56;5031178;28;20025;-77
2022/10/07 11:20:16;;;;;;;10.60;6.40;;;;;;;16.07;83.96;100573.34;5032015;28;20465;-77
2022/10/07 11:22:49;;;;;;;9.75;6.40;;;;;;;16.04;84.41;100573.50;5032211;28;20107;-77
2022/10/07 11:25:27;;;;;;;9.68;6.38;;;;;;;15.98;85.43;100553.69;5031609;28;20483;-77
2022/10/07 11:27:59;;;;;;;10.25;7.07;;;;;;;15.96;85.96;100545.84;5031723;28;20053;-77
2022/10/07 11:30:30;;;;;;;10.10;7.30;;;;;;;16.05;85.80;100557.66;5031527;28;20025;-77
2022/10/07 11:33:12;;;;;;;9.98;6.63;;;;;;;16.04;85.61;100541.97;5031661;28;20025;-77
2022/10/07 11:35:46;;;;;;;10.25;7.25;;;;;;;16.12;86.38;100530.09;5031636;28;20036;-77